createdAt,value
2017-05-18T00:00:57.840Z,21.74
2017-05-18T00:02:08.118Z,21.74
2017-05-18T00:03:18.392Z,21.71
2017-05-18T00:04:28.670Z,21.79
2017-05-18T00:05:38.618Z,21.77
2017-05-18T00:06:48.876Z,21.77
2017-05-18T00:07:58.833Z,21.75
2017-05-18T00:09:08.801Z,21.74
2017-05-18T00:10:18.439Z,21.74
2017-05-18T00:11:28.700Z,21.69
2017-05-18T00:12:38.034Z,21.69
2017-05-18T00:13:47.678Z,21.68
2017-05-18T00:14:57.633Z,21.72
2017-05-18T00:16:07.932Z,21.74
2017-05-18T00:17:17.883Z,21.75
2017-05-18T00:18:27.835Z,21.71
2017-05-18T00:19:38.159Z,21.71
2017-05-18T00:20:48.428Z,21.68
2017-05-18T00:21:58.385Z,21.77
2017-05-18T00:23:08.026Z,21.8
2017-05-18T00:24:17.982Z,21.71
2017-05-18T00:25:28.248Z,21.69
2017-05-18T00:26:37.582Z,21.71
2017-05-18T00:27:47.847Z,21.69
2017-05-18T00:28:58.109Z,21.69
2017-05-18T00:30:08.061Z,21.68
2017-05-18T00:31:18.014Z,21.69
2017-05-18T00:32:27.970Z,21.68
2017-05-18T00:33:37.925Z,21.67
2017-05-18T00:34:47.872Z,21.69
2017-05-18T00:35:57.508Z,21.71
2017-05-18T00:37:07.779Z,21.65
2017-05-18T00:38:17.788Z,21.71
2017-05-18T00:39:27.425Z,21.69
2017-05-18T00:40:37.690Z,21.59
2017-05-18T00:41:47.703Z,21.71
2017-05-18T00:42:57.721Z,21.71
2017-05-18T00:44:07.725Z,21.71
2017-05-18T00:45:17.681Z,21.68
2017-05-18T00:46:27.632Z,21.72
2017-05-18T00:47:37.889Z,21.68
2017-05-18T00:48:48.159Z,21.72
2017-05-18T00:49:58.112Z,21.67
2017-05-18T00:51:08.394Z,21.69
2017-05-18T00:52:18.033Z,21.68
2017-05-18T00:53:27.991Z,21.69
2017-05-18T00:54:37.948Z,21.68
2017-05-18T00:55:47.900Z,21.62
2017-05-18T00:56:57.856Z,21.69
2017-05-18T00:58:07.538Z,21.71
2017-05-18T00:59:17.483Z,21.72
2017-05-18T01:00:27.437Z,21.65
2017-05-18T01:01:37.385Z,21.69
2017-05-18T01:02:47.714Z,21.61
2017-05-18T01:03:57.987Z,21.65
2017-05-18T01:05:07.939Z,21.69
2017-05-18T01:06:17.894Z,21.62
2017-05-18T01:07:27.845Z,21.65
2017-05-18T01:08:37.810Z,21.65
2017-05-18T01:09:47.778Z,21.69
2017-05-18T01:10:58.053Z,21.69
2017-05-18T01:12:08.008Z,21.71
2017-05-18T01:13:17.655Z,21.67
2017-05-18T01:14:27.611Z,21.64
2017-05-18T01:15:37.562Z,21.65
2017-05-18T01:16:47.525Z,21.67
2017-05-18T01:17:57.801Z,21.69
2017-05-18T01:19:07.771Z,21.69
2017-05-18T01:20:17.721Z,21.64
2017-05-18T01:21:27.674Z,21.64
2017-05-18T01:22:37.946Z,21.69
2017-05-18T01:23:47.608Z,21.65
2017-05-18T01:24:57.257Z,21.62
2017-05-18T01:26:06.902Z,21.68
2017-05-18T01:27:16.863Z,21.58
2017-05-18T01:28:26.833Z,21.65
2017-05-18T01:29:36.791Z,21.67
2017-05-18T01:30:46.437Z,21.64
2017-05-18T01:31:56.080Z,21.61
2017-05-18T01:33:06.344Z,21.67
2017-05-18T01:34:16.298Z,21.61
2017-05-18T01:35:26.250Z,21.69
2017-05-18T01:36:36.519Z,21.67
2017-05-18T01:37:46.174Z,21.64
2017-05-18T01:38:56.435Z,21.65
2017-05-18T01:40:06.397Z,21.62
2017-05-18T01:41:16.352Z,21.65
2017-05-18T01:42:26.628Z,21.58
2017-05-18T01:43:36.901Z,21.64
2017-05-18T01:44:47.173Z,21.65
2017-05-18T01:45:57.450Z,21.59
2017-05-18T01:47:07.723Z,21.67
2017-05-18T01:48:17.986Z,21.64
2017-05-18T01:49:27.949Z,21.58
2017-05-18T01:50:37.900Z,21.65
2017-05-18T01:51:48.172Z,21.67
2017-05-18T01:52:58.125Z,21.61
2017-05-18T01:54:08.086Z,21.59
2017-05-18T01:55:18.035Z,21.61
2017-05-18T01:56:28.051Z,21.68
2017-05-18T01:57:38.007Z,21.61
2017-05-18T01:58:48.032Z,21.64
2017-05-18T01:59:58.294Z,21.56
2017-05-18T02:01:08.569Z,21.64
2017-05-18T02:02:18.522Z,21.69
2017-05-18T02:03:28.845Z,21.62
2017-05-18T02:04:38.804Z,21.64
2017-05-18T02:05:49.074Z,21.64
2017-05-18T02:06:59.028Z,21.58
2017-05-18T02:08:08.985Z,21.68
2017-05-18T02:09:18.625Z,21.69
2017-05-18T02:10:28.582Z,21.59
2017-05-18T02:11:38.535Z,21.61
2017-05-18T02:12:48.492Z,21.37
2017-05-18T02:13:58.451Z,21.29
2017-05-18T02:15:08.421Z,21.22
2017-05-18T02:16:18.056Z,21.14
2017-05-18T02:17:28.320Z,21.19
2017-05-18T02:18:37.958Z,21.34
2017-05-18T02:19:48.233Z,21.4
2017-05-18T02:20:58.506Z,21.53
2017-05-18T02:22:08.198Z,21.58
2017-05-18T02:23:18.158Z,21.56
2017-05-18T02:24:27.803Z,21.52
2017-05-18T02:25:37.125Z,21.54
2017-05-18T02:26:47.081Z,21.62
2017-05-18T02:27:57.354Z,21.53
2017-05-18T02:29:07.626Z,21.59
2017-05-18T02:30:17.898Z,21.53
2017-05-18T02:31:28.166Z,21.56
2017-05-18T02:32:38.430Z,21.52
2017-05-18T02:33:48.386Z,21.54
2017-05-18T02:34:58.345Z,21.52
2017-05-18T02:36:08.625Z,21.53
2017-05-18T02:37:18.891Z,21.54
2017-05-18T02:38:28.850Z,21.42
2017-05-18T02:39:38.493Z,21.37
2017-05-18T02:40:48.766Z,21.43
2017-05-18T02:41:59.038Z,21.37
2017-05-18T02:43:09.310Z,21.49
2017-05-18T02:44:18.952Z,21.52
2017-05-18T02:45:29.222Z,21.59
2017-05-18T02:46:39.174Z,21.52
2017-05-18T02:47:49.439Z,21.56
2017-05-18T02:48:59.732Z,21.5
2017-05-18T02:50:09.057Z,21.52
2017-05-18T02:51:18.694Z,21.56
2017-05-18T02:52:28.986Z,21.56
2017-05-18T02:53:38.621Z,21.47
2017-05-18T02:54:48.896Z,21.56
2017-05-18T02:55:59.186Z,21.53
2017-05-18T02:57:09.457Z,21.54
2017-05-18T02:58:19.102Z,21.53
2017-05-18T02:59:29.374Z,21.61
2017-05-18T03:00:39.648Z,21.58
2017-05-18T03:01:49.590Z,21.53
2017-05-18T03:02:59.860Z,21.54
2017-05-18T03:04:10.130Z,21.58
2017-05-18T03:05:20.412Z,21.5
2017-05-18T03:06:30.677Z,21.53
2017-05-18T03:07:40.632Z,21.59
2017-05-18T03:08:50.961Z,21.49
2017-05-18T03:10:00.918Z,21.58
2017-05-18T03:11:10.558Z,21.49
2017-05-18T03:12:20.823Z,21.56
2017-05-18T03:13:30.463Z,21.58
2017-05-18T03:14:40.731Z,21.54
2017-05-18T03:15:51.006Z,21.56
2017-05-18T03:17:00.965Z,21.56
2017-05-18T03:18:10.602Z,21.54
2017-05-18T03:19:20.543Z,21.49
2017-05-18T03:20:30.812Z,21.49
2017-05-18T03:21:40.447Z,21.53
2017-05-18T03:22:50.709Z,21.58
2017-05-18T03:24:00.980Z,21.53
2017-05-18T03:25:10.931Z,21.53
2017-05-18T03:26:20.878Z,21.53
2017-05-18T03:27:30.829Z,21.49
2017-05-18T03:28:40.474Z,21.52
2017-05-18T03:29:50.740Z,21.52
2017-05-18T03:31:00.376Z,21.49
2017-05-18T03:32:10.329Z,21.49
2017-05-18T03:33:19.963Z,21.53
2017-05-18T03:34:30.229Z,21.5
2017-05-18T03:35:40.502Z,21.59
2017-05-18T03:36:50.770Z,21.52
2017-05-18T03:38:01.035Z,21.53
2017-05-18T03:39:10.671Z,21.52
2017-05-18T03:40:20.937Z,21.53
2017-05-18T03:41:31.252Z,21.46
2017-05-18T03:42:41.204Z,21.54
2017-05-18T03:43:51.480Z,21.46
2017-05-18T03:45:01.750Z,21.52
2017-05-18T03:46:12.071Z,21.53
2017-05-18T03:47:21.710Z,21.52
2017-05-18T03:48:31.683Z,21.49
2017-05-18T03:49:41.642Z,21.54
2017-05-18T03:50:51.276Z,21.52
2017-05-18T03:52:01.578Z,21.58
2017-05-18T03:53:11.855Z,21.52
2017-05-18T03:54:21.806Z,21.58
2017-05-18T03:55:31.755Z,21.5
2017-05-18T03:56:42.023Z,21.54
2017-05-18T03:57:52.296Z,21.59
2017-05-18T03:59:02.569Z,21.53
2017-05-18T04:00:12.205Z,21.52
2017-05-18T04:01:22.169Z,21.54
2017-05-18T04:02:32.437Z,21.56
2017-05-18T04:03:42.709Z,21.59
2017-05-18T04:04:52.975Z,21.56
2017-05-18T04:06:03.245Z,21.58
2017-05-18T04:07:13.508Z,21.65
2017-05-18T04:08:23.460Z,21.42
2017-05-18T04:09:33.416Z,21.46
2017-05-18T04:10:43.370Z,21.4
2017-05-18T04:11:53.318Z,21.5
2017-05-18T04:13:03.599Z,21.43
2017-05-18T04:14:13.867Z,21.59
2017-05-18T04:15:23.191Z,21.54
2017-05-18T04:16:33.141Z,21.52
2017-05-18T04:17:43.442Z,21.59
2017-05-18T04:18:53.403Z,21.56
2017-05-18T04:20:03.673Z,21.53
2017-05-18T04:21:13.941Z,21.56
2017-05-18T04:22:23.891Z,21.5
2017-05-18T04:23:33.851Z,21.53
2017-05-18T04:24:43.805Z,21.58
2017-05-18T04:25:54.074Z,21.53
2017-05-18T04:27:04.020Z,21.58
2017-05-18T04:28:13.976Z,21.54
2017-05-18T04:29:23.940Z,21.58
2017-05-18T04:30:33.270Z,21.53
2017-05-18T04:31:43.536Z,21.53
2017-05-18T04:32:53.861Z,21.5
2017-05-18T04:34:04.424Z,21.59
2017-05-18T04:35:14.693Z,21.59
2017-05-18T04:36:24.344Z,21.56
2017-05-18T04:37:34.610Z,21.59
2017-05-18T04:38:44.628Z,21.56
2017-05-18T04:39:54.893Z,21.59
2017-05-18T04:41:04.853Z,21.54
2017-05-18T04:42:15.121Z,21.56
2017-05-18T04:43:25.080Z,21.59
2017-05-18T04:44:35.035Z,21.58
2017-05-18T04:45:45.305Z,21.53
2017-05-18T04:46:54.954Z,21.56
2017-05-18T04:48:04.916Z,21.53
2017-05-18T04:49:14.861Z,21.59
2017-05-18T04:50:24.829Z,21.62
2017-05-18T04:51:35.093Z,21.58
2017-05-18T04:52:45.387Z,21.62
2017-05-18T04:53:55.349Z,21.58
2017-05-18T04:55:05.298Z,21.56
2017-05-18T04:56:15.251Z,21.58
2017-05-18T04:57:25.520Z,21.59
2017-05-18T04:58:35.163Z,21.61
2017-05-18T04:59:44.813Z,21.64
2017-05-18T05:00:54.509Z,21.68
2017-05-18T05:02:04.514Z,21.61
2017-05-18T05:03:14.464Z,21.62
2017-05-18T05:04:24.103Z,21.61
2017-05-18T05:05:34.374Z,21.62
2017-05-18T05:06:44.647Z,21.62
2017-05-18T05:07:54.602Z,21.62
2017-05-18T05:09:04.556Z,21.67
2017-05-18T05:10:14.510Z,21.72
2017-05-18T05:11:24.777Z,21.79
2017-05-18T05:12:34.732Z,21.71
2017-05-18T05:13:44.685Z,21.58
2017-05-18T05:14:54.952Z,21.35
2017-05-18T05:16:05.220Z,21.19
2017-05-18T05:17:15.485Z,21.1
2017-05-18T05:18:25.126Z,21.03
2017-05-18T05:19:35.387Z,21.07
2017-05-18T05:20:45.022Z,21.04
2017-05-18T05:21:55.290Z,21.01
2017-05-18T05:23:05.575Z,20.95
2017-05-18T05:24:15.840Z,20.98
2017-05-18T05:25:26.109Z,20.97
2017-05-18T05:26:36.378Z,20.94
2017-05-18T05:27:46.640Z,20.91
2017-05-18T05:28:56.589Z,20.97
2017-05-18T05:30:06.548Z,20.99
2017-05-18T05:31:16.493Z,20.92
2017-05-18T05:32:26.756Z,20.94
2017-05-18T05:33:36.710Z,20.97
2017-05-18T05:34:46.984Z,21.12
2017-05-18T05:35:56.934Z,21.22
2017-05-18T05:37:07.207Z,21.22
2017-05-18T05:38:17.472Z,21.21
2017-05-18T05:39:27.107Z,21.22
2017-05-18T05:40:37.057Z,21.28
2017-05-18T05:41:46.695Z,21.21
2017-05-18T05:42:56.648Z,21.31
2017-05-18T05:44:06.291Z,21.22
2017-05-18T05:45:16.248Z,21.29
2017-05-18T05:46:26.206Z,21.34
2017-05-18T05:47:36.492Z,21.4
2017-05-18T05:48:46.127Z,21.43
2017-05-18T05:49:56.397Z,21.43
2017-05-18T05:51:06.668Z,21.4
2017-05-18T05:52:16.620Z,21.42
2017-05-18T05:53:26.577Z,21.37
2017-05-18T05:54:36.534Z,21.46
2017-05-18T05:55:46.175Z,21.42
2017-05-18T05:56:56.433Z,21.34
2017-05-18T05:58:06.702Z,21.34
2017-05-18T05:59:17.025Z,21.42
2017-05-18T06:00:27.318Z,21.34
2017-05-18T06:01:37.592Z,21.42
2017-05-18T06:02:47.855Z,21.27
2017-05-18T06:03:57.495Z,21.42
2017-05-18T06:05:07.446Z,21.34
2017-05-18T06:06:17.393Z,21.43
2017-05-18T06:07:27.663Z,21.43
2017-05-18T06:08:37.694Z,21.52
2017-05-18T06:09:47.644Z,21.49
2017-05-18T06:10:57.605Z,21.46
2017-05-18T06:12:07.893Z,21.47
2017-05-18T06:13:18.162Z,21.38
2017-05-18T06:14:28.436Z,21.58
2017-05-18T06:15:38.710Z,21.44
2017-05-18T06:16:48.665Z,21.52
2017-05-18T06:17:58.945Z,21.53
2017-05-18T06:19:09.216Z,21.58
2017-05-18T06:20:19.169Z,21.56
2017-05-18T06:21:29.430Z,21.65
2017-05-18T06:22:39.699Z,21.52
2017-05-18T06:23:49.973Z,21.53
2017-05-18T06:25:00.244Z,21.52
2017-05-18T06:26:10.200Z,21.56
2017-05-18T06:27:20.472Z,21.59
2017-05-18T06:28:30.738Z,21.65
2017-05-18T06:29:41.102Z,21.71
2017-05-18T06:30:51.064Z,21.68
2017-05-18T06:32:01.026Z,21.75
2017-05-18T06:33:11.300Z,21.82
2017-05-18T06:34:21.252Z,21.84
2017-05-18T06:35:31.207Z,21.79
2017-05-18T06:36:41.154Z,21.84
2017-05-18T06:37:51.628Z,21.88
2017-05-18T06:39:01.904Z,21.91
2017-05-18T06:40:12.169Z,21.84
2017-05-18T06:41:22.435Z,21.86
2017-05-18T06:42:32.709Z,21.98
2017-05-18T06:43:42.666Z,22
2017-05-18T06:44:52.622Z,21.91
2017-05-18T06:46:02.888Z,22.03
2017-05-18T06:47:12.835Z,22
2017-05-18T06:48:22.837Z,22.1
2017-05-18T06:49:33.106Z,22.03
2017-05-18T06:50:43.060Z,22.1
2017-05-18T06:51:53.332Z,22.18
2017-05-18T06:53:03.598Z,22.28
2017-05-18T06:54:13.923Z,22.17
2017-05-18T06:55:24.192Z,22.14
2017-05-18T06:56:34.458Z,22.21
2017-05-18T06:57:44.729Z,22.22
2017-05-18T06:58:54.689Z,22.24
2017-05-18T07:00:04.658Z,22.27
2017-05-18T07:01:14.297Z,22.2
2017-05-18T07:02:24.564Z,22.28
2017-05-18T07:03:34.518Z,22.27
2017-05-18T07:04:44.476Z,22.25
2017-05-18T07:05:54.490Z,22.22
2017-05-18T07:07:04.759Z,22.22
2017-05-18T07:08:15.025Z,22.18
2017-05-18T07:09:24.984Z,22.14
2017-05-18T07:10:34.947Z,22.12
2017-05-18T07:11:45.229Z,22.17
2017-05-18T07:12:55.503Z,22.14
2017-05-18T07:14:05.146Z,22.15
2017-05-18T07:15:15.415Z,22.06
2017-05-18T07:16:25.364Z,22.14
2017-05-18T07:17:35.318Z,22.15
2017-05-18T07:18:45.596Z,22.2
2017-05-18T07:19:55.611Z,22.15
2017-05-18T07:21:05.881Z,22.18
2017-05-18T07:22:15.836Z,22.22
2017-05-18T07:23:25.784Z,22.25
2017-05-18T07:24:35.732Z,22.21
2017-05-18T07:25:45.997Z,22.2
2017-05-18T07:26:55.639Z,22.21
2017-05-18T07:28:05.906Z,22.22
2017-05-18T07:29:15.867Z,22.14
2017-05-18T07:30:26.140Z,22.2
2017-05-18T07:31:36.405Z,22.24
2017-05-18T07:32:46.361Z,22.27
2017-05-18T07:33:55.685Z,22.27
2017-05-18T07:35:05.949Z,22.28
2017-05-18T07:36:15.904Z,22.35
2017-05-18T07:37:26.170Z,22.36
2017-05-18T07:38:35.804Z,22.36
2017-05-18T07:39:45.444Z,22.36
2017-05-18T07:40:55.709Z,22.37
2017-05-18T07:42:05.341Z,22.33
2017-05-18T07:43:15.298Z,22.42
2017-05-18T07:44:25.263Z,22.35
2017-05-18T07:45:35.532Z,22.36
2017-05-18T07:46:45.492Z,22.47
2017-05-18T07:47:55.442Z,22.31
2017-05-18T07:49:05.391Z,22.35
2017-05-18T07:50:15.352Z,22.37
2017-05-18T07:51:24.711Z,22.43
2017-05-18T07:52:34.660Z,22.49
2017-05-18T07:53:44.617Z,22.72
2017-05-18T07:54:54.569Z,22.58
2017-05-18T07:56:04.840Z,22.61
2017-05-18T07:57:15.105Z,22.52
2017-05-18T07:58:25.379Z,22.58
2017-05-18T07:59:35.018Z,22.61
2017-05-18T08:00:44.705Z,22.64
2017-05-18T08:01:54.966Z,22.7
2017-05-18T08:03:05.230Z,22.82
2017-05-18T08:04:15.193Z,22.94
2017-05-18T08:05:25.140Z,22.97
2017-05-18T08:06:35.098Z,23
2017-05-18T08:07:45.050Z,22.86
2017-05-18T08:08:55.001Z,23
2017-05-18T08:10:04.954Z,22.97
2017-05-18T08:11:14.588Z,22.92
2017-05-18T08:12:24.534Z,22.91
2017-05-18T08:13:34.489Z,22.8
2017-05-18T08:14:44.761Z,22.91
2017-05-18T08:15:55.033Z,22.88
2017-05-18T08:17:04.995Z,22.88
2017-05-18T08:18:14.634Z,22.86
2017-05-18T08:19:24.583Z,22.77
2017-05-18T08:20:34.852Z,22.79
2017-05-18T08:21:44.183Z,22.79
2017-05-18T08:22:54.137Z,22.67
2017-05-18T08:24:03.467Z,22.9
2017-05-18T08:25:13.110Z,22.88
2017-05-18T08:26:22.745Z,22.82
2017-05-18T08:27:32.710Z,22.82
2017-05-18T08:28:42.986Z,22.79
2017-05-18T08:29:52.632Z,22.76
2017-05-18T08:31:02.274Z,22.8
2017-05-18T08:32:12.232Z,22.88
2017-05-18T08:33:21.873Z,22.94
2017-05-18T08:34:31.829Z,22.85
2017-05-18T08:35:41.791Z,22.95
2017-05-18T08:36:51.430Z,22.9
2017-05-18T08:38:01.070Z,22.77
2017-05-18T08:39:10.706Z,22.76
2017-05-18T08:40:20.974Z,23
2017-05-18T08:41:30.614Z,22.98
2017-05-18T08:42:40.572Z,22.91
2017-05-18T08:43:50.534Z,22.91
2017-05-18T08:45:00.812Z,22.86
2017-05-18T08:46:10.762Z,22.91
2017-05-18T08:47:20.718Z,22.82
2017-05-18T08:48:30.363Z,22.83
2017-05-18T08:49:40.311Z,22.76
2017-05-18T08:50:50.575Z,22.75
2017-05-18T08:52:00.530Z,22.9
2017-05-18T08:53:10.481Z,22.88
2017-05-18T08:54:20.437Z,22.77
2017-05-18T08:55:30.711Z,22.72
2017-05-18T08:56:40.667Z,22.6
2017-05-18T08:57:50.933Z,22.58
2017-05-18T08:59:00.575Z,22.58
2017-05-18T09:00:10.855Z,22.51
2017-05-18T09:01:20.809Z,22.62
2017-05-18T09:02:30.760Z,22.72
2017-05-18T09:03:40.713Z,22.58
2017-05-18T09:04:50.977Z,22.55
2017-05-18T09:06:00.615Z,22.46
2017-05-18T09:07:10.898Z,22.52
2017-05-18T09:08:21.166Z,22.46
2017-05-18T09:09:30.819Z,22.47
2017-05-18T09:10:41.086Z,22.55
2017-05-18T09:11:51.034Z,22.45
2017-05-18T09:13:01.311Z,22.4
2017-05-18T09:14:11.584Z,22.39
2017-05-18T09:15:21.855Z,22.36
2017-05-18T09:16:32.133Z,22.42
2017-05-18T09:17:42.089Z,22.37
2017-05-18T09:18:52.042Z,22.4
2017-05-18T09:20:01.677Z,22.37
2017-05-18T09:21:11.935Z,22.39
2017-05-18T09:22:22.205Z,22.35
2017-05-18T09:23:31.846Z,22.39
2017-05-18T09:24:41.802Z,22.35
2017-05-18T09:25:51.765Z,22.4
2017-05-18T09:27:01.721Z,22.4
2017-05-18T09:28:11.361Z,22.37
2017-05-18T09:29:20.999Z,22.45
2017-05-18T09:30:31.276Z,22.43
2017-05-18T09:31:41.230Z,22.45
2017-05-18T09:32:51.495Z,22.4
2017-05-18T09:34:01.773Z,22.42
2017-05-18T09:35:12.041Z,22.31
2017-05-18T09:36:21.992Z,22.43
2017-05-18T09:37:31.941Z,22.33
2017-05-18T09:38:41.901Z,22.39
2017-05-18T09:39:51.862Z,22.4
2017-05-18T09:41:01.821Z,22.35
2017-05-18T09:42:12.091Z,22.35
2017-05-18T09:43:22.396Z,22.4
2017-05-18T09:44:32.037Z,22.35
2017-05-18T09:45:41.672Z,22.4
2017-05-18T09:46:51.310Z,22.37
2017-05-18T09:48:01.268Z,22.37
2017-05-18T09:49:11.219Z,22.31
2017-05-18T09:50:21.489Z,22.43
2017-05-18T09:51:31.754Z,22.4
2017-05-18T09:52:41.706Z,22.4
2017-05-18T09:53:51.656Z,22.28
2017-05-18T09:55:01.356Z,22.36
2017-05-18T09:56:11.310Z,22.37
2017-05-18T09:57:21.270Z,22.35
2017-05-18T09:58:31.229Z,22.43
2017-05-18T09:59:41.183Z,22.4
2017-05-18T10:00:51.136Z,22.33
2017-05-18T10:02:01.405Z,22.37
2017-05-18T10:03:11.665Z,22.35
2017-05-18T10:04:21.628Z,22.42
2017-05-18T10:05:31.582Z,22.39
2017-05-18T10:06:42.125Z,22.4
2017-05-18T10:07:51.879Z,22.35
2017-05-18T10:09:02.153Z,22.36
2017-05-18T10:10:11.789Z,22.37
2017-05-18T10:11:21.749Z,22.36
2017-05-18T10:12:32.017Z,22.39
2017-05-18T10:13:41.977Z,22.39
2017-05-18T10:14:51.931Z,22.4
2017-05-18T10:16:01.573Z,22.37
2017-05-18T10:17:11.526Z,22.37
2017-05-18T10:18:21.481Z,22.37
2017-05-18T10:19:31.832Z,22.39
2017-05-18T10:20:42.101Z,22.39
2017-05-18T10:21:52.058Z,22.35
2017-05-18T10:23:01.693Z,22.33
2017-05-18T10:24:11.963Z,22.43
2017-05-18T10:25:22.230Z,22.35
2017-05-18T10:26:32.234Z,22.33
2017-05-18T10:27:42.203Z,22.4
2017-05-18T10:28:52.158Z,22.4
2017-05-18T10:30:02.119Z,22.4
2017-05-18T10:31:11.760Z,22.43
2017-05-18T10:32:21.396Z,22.3
2017-05-18T10:33:31.039Z,22.27
2017-05-18T10:34:40.994Z,22.4
2017-05-18T10:35:50.957Z,22.31
2017-05-18T10:37:00.907Z,22.27
2017-05-18T10:38:10.550Z,22.4
2017-05-18T10:39:20.505Z,22.36
2017-05-18T10:40:30.197Z,22.39
2017-05-18T10:41:40.150Z,22.4
2017-05-18T10:42:50.107Z,22.33
2017-05-18T10:44:00.380Z,22.36
2017-05-18T10:45:10.339Z,22.36
2017-05-18T10:46:20.293Z,22.31
2017-05-18T10:47:30.559Z,22.3
2017-05-18T10:48:40.519Z,22.36
2017-05-18T10:49:50.839Z,22.45
2017-05-18T10:51:00.474Z,22.46
2017-05-18T10:52:10.113Z,22.35
2017-05-18T10:53:20.068Z,22.33
2017-05-18T10:54:30.346Z,22.42
2017-05-18T10:55:40.298Z,22.35
2017-05-18T10:56:50.569Z,22.37
2017-05-18T10:58:00.841Z,22.39
2017-05-18T10:59:11.108Z,22.49
2017-05-18T11:00:20.749Z,22.37
2017-05-18T11:01:31.022Z,22.39
2017-05-18T11:02:41.287Z,22.31
2017-05-18T11:03:51.240Z,22.31
2017-05-18T11:05:01.205Z,22.39
2017-05-18T11:06:11.471Z,22.37
2017-05-18T11:07:21.109Z,22.36
2017-05-18T11:08:31.129Z,22.47
2017-05-18T11:09:41.400Z,22.39
2017-05-18T11:10:51.355Z,22.39
2017-05-18T11:12:01.310Z,22.4
2017-05-18T11:13:10.946Z,22.3
2017-05-18T11:14:20.904Z,22.36
2017-05-18T11:15:30.856Z,22.42
2017-05-18T11:16:41.122Z,22.42
2017-05-18T11:17:51.083Z,22.39
2017-05-18T11:19:01.355Z,22.36
2017-05-18T11:20:10.674Z,22.3
2017-05-18T11:21:20.621Z,22.24
2017-05-18T11:22:30.890Z,22.35
2017-05-18T11:23:41.161Z,22.42
2017-05-18T11:24:51.119Z,22.35
2017-05-18T11:26:01.072Z,22.37
2017-05-18T11:27:11.023Z,22.31
2017-05-18T11:28:21.303Z,22.39
2017-05-18T11:29:31.572Z,22.42
2017-05-18T11:30:40.903Z,22.36
2017-05-18T11:31:50.544Z,22.33
2017-05-18T11:33:00.503Z,22.35
2017-05-18T11:34:10.773Z,22.36
2017-05-18T11:35:19.786Z,22.39
2017-05-18T11:36:30.058Z,22.4
2017-05-18T11:37:40.019Z,22.31
2017-05-18T11:38:49.982Z,22.3
2017-05-18T11:39:59.624Z,22.4
2017-05-18T11:41:09.893Z,22.4
2017-05-18T11:42:20.162Z,22.39
2017-05-18T11:43:30.437Z,22.35
2017-05-18T11:44:40.443Z,22.4
2017-05-18T11:45:49.770Z,22.33
2017-05-18T11:46:59.093Z,22.36
2017-05-18T11:48:08.419Z,22.39
2017-05-18T11:49:18.391Z,22.42
2017-05-18T11:50:28.025Z,22.37
2017-05-18T11:51:38.295Z,22.39
2017-05-18T11:52:48.249Z,22.37
2017-05-18T11:53:58.207Z,22.33
2017-05-18T11:55:07.851Z,22.35
2017-05-18T11:56:17.858Z,22.33
2017-05-18T11:57:28.128Z,22.35
2017-05-18T11:58:38.405Z,22.31
2017-05-18T11:59:48.680Z,22.43
2017-05-18T12:00:58.323Z,22.36
2017-05-18T12:02:07.966Z,22.47
2017-05-18T12:03:17.630Z,22.42
2017-05-18T12:04:27.582Z,22.4
2017-05-18T12:05:37.862Z,22.55
2017-05-18T12:06:48.134Z,22.55
2017-05-18T12:07:58.090Z,22.51
2017-05-18T12:09:08.368Z,22.43
2017-05-18T12:10:18.007Z,22.51
2017-05-18T12:11:27.950Z,22.45
2017-05-18T12:12:37.897Z,22.45
2017-05-18T12:13:48.174Z,22.49
2017-05-18T12:14:58.453Z,22.52
2017-05-18T12:16:07.465Z,22.49
2017-05-18T12:17:17.455Z,22.47
2017-05-18T12:18:27.093Z,22.47
2017-05-18T12:19:37.047Z,22.55
2017-05-18T12:20:47.319Z,22.54
2017-05-18T12:21:57.271Z,22.45
2017-05-18T12:23:07.538Z,22.4
2017-05-18T12:24:17.177Z,22.46
2017-05-18T12:25:27.143Z,22.43
2017-05-18T12:26:37.414Z,22.55
2017-05-18T12:27:47.368Z,22.54
2017-05-18T12:28:57.386Z,22.47
2017-05-18T12:30:07.656Z,22.54
2017-05-18T12:31:17.309Z,22.42
2017-05-18T12:32:27.589Z,22.43
2017-05-18T12:33:37.876Z,22.47
2017-05-18T12:34:47.202Z,22.45
2017-05-18T12:35:57.463Z,22.51
2017-05-18T12:37:07.731Z,22.35
2017-05-18T12:38:17.064Z,22.39
2017-05-18T12:39:27.019Z,22.36
2017-05-18T12:40:37.302Z,22.51
2017-05-18T12:41:47.576Z,22.43
2017-05-18T12:42:57.838Z,22.46
2017-05-18T12:44:08.111Z,22.54
2017-05-18T12:45:18.059Z,22.47
2017-05-18T12:46:28.017Z,22.46
2017-05-18T12:47:37.971Z,22.51
2017-05-18T12:48:47.612Z,22.45
2017-05-18T12:49:57.878Z,22.49
2017-05-18T12:51:07.853Z,22.51
2017-05-18T12:52:17.487Z,22.45
2017-05-18T12:53:26.814Z,22.49
2017-05-18T12:54:37.084Z,22.51
2017-05-18T12:55:47.036Z,22.45
2017-05-18T12:56:56.988Z,22.51
2017-05-18T12:58:07.264Z,22.45
2017-05-18T12:59:17.224Z,22.46
2017-05-18T13:00:27.494Z,22.51
2017-05-18T13:01:37.141Z,22.49
2017-05-18T13:02:47.469Z,22.58
2017-05-18T13:03:57.427Z,22.55
2017-05-18T13:05:07.429Z,22.65
2017-05-18T13:06:17.087Z,22.64
2017-05-18T13:07:27.031Z,22.61
2017-05-18T13:08:37.317Z,22.6
2017-05-18T13:09:47.269Z,22.55
2017-05-18T13:10:57.233Z,22.55
2017-05-18T13:12:07.495Z,22.52
2017-05-18T13:13:17.136Z,22.49
2017-05-18T13:14:27.089Z,22.51
2017-05-18T13:15:36.735Z,22.51
2017-05-18T13:16:47.042Z,22.46
2017-05-18T13:17:57.001Z,22.61
2017-05-18T13:19:06.954Z,22.67
2017-05-18T13:20:16.915Z,22.68
2017-05-18T13:21:26.872Z,22.64
2017-05-18T13:22:36.829Z,22.64
2017-05-18T13:23:46.787Z,22.64
2017-05-18T13:24:56.739Z,22.7
2017-05-18T13:26:07.004Z,22.55
2017-05-18T13:27:16.325Z,22.61
2017-05-18T13:28:26.276Z,22.58
2017-05-18T13:29:36.228Z,22.65
2017-05-18T13:30:46.499Z,22.6
2017-05-18T13:31:56.453Z,22.54
2017-05-18T13:33:06.726Z,22.64
2017-05-18T13:34:17.000Z,22.58
2017-05-18T13:35:27.275Z,22.61
2017-05-18T13:36:37.228Z,22.6
2017-05-18T13:37:47.188Z,22.64
2017-05-18T13:38:57.458Z,22.68
2017-05-18T13:40:07.733Z,22.64
2017-05-18T13:41:17.693Z,22.73
2017-05-18T13:42:27.644Z,22.7
2017-05-18T13:43:37.908Z,22.64
2017-05-18T13:44:47.870Z,22.65
2017-05-18T13:45:57.835Z,22.72
2017-05-18T13:47:08.102Z,22.67
2017-05-18T13:48:17.747Z,22.6
2017-05-18T13:49:27.708Z,22.62
2017-05-18T13:50:37.977Z,22.57
2017-05-18T13:51:47.928Z,22.55
2017-05-18T13:52:58.190Z,22.58
2017-05-18T13:54:08.144Z,22.64
2017-05-18T13:55:17.793Z,22.7
2017-05-18T13:56:27.430Z,22.67
2017-05-18T13:57:37.383Z,22.62
2017-05-18T13:58:47.657Z,22.62
2017-05-18T13:59:57.937Z,22.57
2017-05-18T14:01:07.902Z,22.49
2017-05-18T14:02:18.168Z,22.46
2017-05-18T14:03:28.122Z,22.54
2017-05-18T14:04:38.068Z,22.52
2017-05-18T14:05:48.018Z,22.52
2017-05-18T14:06:58.282Z,22.51
2017-05-18T14:08:08.239Z,22.51
2017-05-18T14:09:18.190Z,22.52
2017-05-18T14:10:28.451Z,22.54
2017-05-18T14:11:38.411Z,22.49
2017-05-18T14:12:48.682Z,22.46
2017-05-18T14:13:58.636Z,22.51
2017-05-18T14:15:08.605Z,22.46
2017-05-18T14:16:18.883Z,22.42
2017-05-18T14:17:29.148Z,22.43
2017-05-18T14:18:39.415Z,22.57
2017-05-18T14:19:49.366Z,22.51
2017-05-18T14:20:59.645Z,22.37
2017-05-18T14:22:09.915Z,22.45
2017-05-18T14:23:19.602Z,22.45
2017-05-18T14:24:29.875Z,22.43
2017-05-18T14:25:40.144Z,22.54
2017-05-18T14:26:49.782Z,22.42
2017-05-18T14:27:59.734Z,22.35
2017-05-18T14:29:10.005Z,22.39
2017-05-18T14:30:19.648Z,22.39
2017-05-18T14:31:29.919Z,22.42
2017-05-18T14:32:40.188Z,22.46
2017-05-18T14:33:50.461Z,22.39
2017-05-18T14:35:00.731Z,22.35
2017-05-18T14:36:09.740Z,22.36
2017-05-18T14:37:19.689Z,22.39
2017-05-18T14:38:29.652Z,22.33
2017-05-18T14:39:39.926Z,22.42
2017-05-18T14:40:50.206Z,22.39
2017-05-18T14:42:00.473Z,22.36
2017-05-18T14:43:10.750Z,22.33
2017-05-18T14:44:20.712Z,22.47
2017-05-18T14:45:30.665Z,22.37
2017-05-18T14:46:40.619Z,22.37
2017-05-18T14:47:50.575Z,22.35
2017-05-18T14:49:00.859Z,22.36
2017-05-18T14:50:11.185Z,22.3
2017-05-18T14:51:21.446Z,22.42
2017-05-18T14:52:31.402Z,22.35
2017-05-18T14:53:41.362Z,22.37
2017-05-18T14:54:51.316Z,22.35
2017-05-18T14:56:01.592Z,22.37
2017-05-18T14:57:11.866Z,22.31
2017-05-18T14:58:22.142Z,22.37
2017-05-18T14:59:32.417Z,22.35
2017-05-18T15:00:42.443Z,22.36
2017-05-18T15:01:51.773Z,22.31
2017-05-18T15:03:02.043Z,22.4
2017-05-18T15:04:11.677Z,22.4
2017-05-18T15:05:21.943Z,22.42